Taipei, Taiwan

8:03 AM CST on October 01, 2016 (GMT +0800)
ITAIPEIT2 | | Change Station

Elev 30 ft 25.03 °N, 121.53 °E | Updated 18 seconds ago

Mostly Cloudy
Mostly Cloudy
84.4 °F
Feels Like 93 °F
N
4.0
Wind Variable Wind from East
Gusts 16.0 mph

Today
High -- | Low -- °F
--% Chance of Precip.
Yesterday
High -- | Low -- °F
Precip. -- in
Pressure 29.86 in
Visibility 6.2 miles
Clouds Few 1800 ft
Scattered Clouds 3500 ft
Mostly Cloudy 6000 ft
Heat Index 93 °F
Dew Point 76 °F
Humidity 75%
Rainfall 0.00 in
Snow Depth Not available.
5:46 AM 5:40 PM
New Moon, 0% visible
METAR RCSS 302330Z 09013KT 9999 FEW018 SCT035 BKN060 28/21 Q1011 NOSIG RMK A2986
Pressure 29.86 in
Visibility 6.2 miles
Clouds Few 1800 ft
Scattered Clouds 3500 ft
Mostly Cloudy 6000 ft
Heat Index 93 °F
Dew Point 76 °F
Humidity 75%
Rainfall 0.00 in
Snow Depth Not available.
5:46 AM 5:40 PM
New Moon, 0% visible
METAR RCSS 302330Z 09013KT 9999 FEW018 SCT035 BKN060 28/21 Q1011 NOSIG RMK A2986

10-Day Weather Forecast

No radar image for this location.
×

Almanac

Astronomy

Oct. 01, 2016 Rise Set
Actual Time
Civil Twilight
Nautical Twilight
Astronomical Twilight
Moon
Length of Visible Light
Length of Day
Tomorrow will be .
, % of the Moon is Illuminated

Today's Extremes

Country Highs Country Lows

Community

WunderPhotos

Upload Photos

1,942,829 photos uploaded!

WunderBlog® & News

Nearby

Air Quality

  Air Quality AQ Index Pollutant
Not available.

Snow Depth

Station Depth Elevation

Earthquake Activity

City Distance Mag. Time & Date
Minimum magnitude displayed is 2.5.

Coastal Water Temperatures

Place Temperature

Stations

Nearby Weather Stations

Station Location Temp. Windchill Dew Point Humidity Wind Precip. Elev Updated Type